createdAt,value
2018-04-17T00:00:01.503Z,7.90
2018-04-17T00:02:29.791Z,11.50
2018-04-17T00:04:58.024Z,8.53
2018-04-17T00:07:25.617Z,8.47
2018-04-17T00:09:53.895Z,6.93
2018-04-17T00:12:22.170Z,9.83
2018-04-17T00:14:50.462Z,9.30
2018-04-17T00:17:17.944Z,9.23
2018-04-17T00:19:45.500Z,10.30
2018-04-17T00:22:13.064Z,9.50
2018-04-17T00:24:40.532Z,8.57
2018-04-17T00:27:08.074Z,9.40
2018-04-17T00:29:35.550Z,8.97
2018-04-17T00:32:03.048Z,8.67
2018-04-17T00:34:31.289Z,12.97
2018-04-17T00:36:58.784Z,9.80
2018-04-17T00:39:27.031Z,9.20
2018-04-17T00:41:54.512Z,8.07
2018-04-17T00:44:22.763Z,8.20
2018-04-17T00:46:50.250Z,8.77
2018-04-17T00:49:18.496Z,10.20
2018-04-17T00:51:46.024Z,7.33
2018-04-17T00:54:13.582Z,7.80
2018-04-17T00:56:41.144Z,6.67
2018-04-17T00:59:08.626Z,8.23
2018-04-17T01:01:36.124Z,9.00
2018-04-17T01:04:04.355Z,7.07
2018-04-17T01:06:31.953Z,8.60
2018-04-17T01:09:00.195Z,10.83
2018-04-17T01:11:27.735Z,6.77
2018-04-17T01:13:55.214Z,10.23
2018-04-17T01:16:22.905Z,7.47
2018-04-17T01:18:51.192Z,10.10
2018-04-17T01:21:19.446Z,10.87
2018-04-17T01:23:46.927Z,8.20
2018-04-17T01:26:15.279Z,9.00
2018-04-17T01:28:42.760Z,12.00
2018-04-17T01:31:11.059Z,11.07
2018-04-17T01:33:38.575Z,8.43
2018-04-17T01:36:06.075Z,11.03
2018-04-17T01:38:33.563Z,8.40
2018-04-17T01:41:01.092Z,8.90
2018-04-17T01:43:28.868Z,8.43
2018-04-17T01:45:56.393Z,9.47
2018-04-17T01:48:23.889Z,11.17
2018-04-17T01:50:51.357Z,9.37
2018-04-17T01:53:18.843Z,9.07
2018-04-17T01:55:46.423Z,13.37
2018-04-17T01:58:14.676Z,11.87
2018-04-17T02:00:42.145Z,9.97
2018-04-17T02:03:10.412Z,9.47
2018-04-17T02:05:37.887Z,8.10
2018-04-17T02:08:06.135Z,13.20
2018-04-17T02:10:33.649Z,8.93
2018-04-17T02:13:01.152Z,8.37
2018-04-17T02:15:29.383Z,9.80
2018-04-17T02:17:56.864Z,12.53
2018-04-17T02:20:24.322Z,10.97
2018-04-17T02:22:51.808Z,10.87
2018-04-17T02:25:19.273Z,11.53
2018-04-17T02:27:47.548Z,10.03
2018-04-17T02:30:15.829Z,8.80
2018-04-17T02:32:44.082Z,9.50
2018-04-17T02:35:11.551Z,10.23
2018-04-17T02:37:39.173Z,17.30
2018-04-17T02:40:06.711Z,12.23
2018-04-17T02:42:34.192Z,13.23
2018-04-17T02:45:01.663Z,12.67
2018-04-17T02:47:29.152Z,10.63
2018-04-17T02:49:57.416Z,10.60
2018-04-17T02:52:24.903Z,10.27
2018-04-17T02:54:52.367Z,11.63
2018-04-17T02:57:19.880Z,8.07
2018-04-17T02:59:47.447Z,10.93
2018-04-17T03:02:15.001Z,10.30
2018-04-17T03:04:42.464Z,10.30
2018-04-17T03:07:09.948Z,9.57
2018-04-17T03:09:37.423Z,13.80
2018-04-17T03:12:04.913Z,12.00
2018-04-17T03:14:32.375Z,9.80
2018-04-17T03:16:59.854Z,13.10
2018-04-17T03:19:28.124Z,9.37
2018-04-17T03:21:55.651Z,10.13
2018-04-17T03:24:23.141Z,11.00
2018-04-17T03:26:51.399Z,10.47
2018-04-17T03:29:18.856Z,11.17
2018-04-17T03:31:46.339Z,10.93
2018-04-17T03:34:14.568Z,7.73
2018-04-17T03:36:42.045Z,9.63
2018-04-17T03:39:09.680Z,10.17
2018-04-17T03:41:37.143Z,14.70
2018-04-17T03:44:04.644Z,9.73
2018-04-17T03:46:32.911Z,12.63
2018-04-17T03:49:00.399Z,10.40
2018-04-17T03:51:27.884Z,12.83
2018-04-17T03:53:55.383Z,10.63
2018-04-17T03:56:22.851Z,9.30
2018-04-17T03:58:51.162Z,11.87
2018-04-17T04:01:18.721Z,10.33
2018-04-17T04:03:46.208Z,8.33
2018-04-17T04:06:13.676Z,16.80
2018-04-17T04:08:41.192Z,8.20
2018-04-17T04:11:08.754Z,12.17
2018-04-17T04:13:36.241Z,11.40
2018-04-17T04:16:03.709Z,11.90
2018-04-17T04:18:43.088Z,12.13
2018-04-17T04:21:22.280Z,11.90
2018-04-17T04:24:01.752Z,10.80
2018-04-17T04:26:31.772Z,8.07
2018-04-17T04:29:00.022Z,10.07
2018-04-17T04:31:27.488Z,12.43
2018-04-17T04:33:55.803Z,8.27
2018-04-17T04:36:23.264Z,11.07
2018-04-17T04:38:51.717Z,9.73
2018-04-17T04:41:19.955Z,13.07
2018-04-17T04:43:47.439Z,11.13
2018-04-17T04:46:15.679Z,11.40
2018-04-17T04:48:43.173Z,10.70
2018-04-17T04:51:11.421Z,13.60
2018-04-17T04:53:39.244Z,11.97
2018-04-17T04:56:06.717Z,12.03
2018-04-17T04:58:34.268Z,13.90
2018-04-17T05:01:01.739Z,14.17
2018-04-17T05:06:03.177Z,16.10
2018-04-17T05:08:30.742Z,17.67
2018-04-17T05:10:58.267Z,13.43
2018-04-17T05:13:26.541Z,16.47
2018-04-17T05:15:54.000Z,15.87
2018-04-17T05:18:22.287Z,16.23
2018-04-17T05:20:50.559Z,24.40
2018-04-17T05:23:18.810Z,16.87
2018-04-17T05:25:46.291Z,15.23
2018-04-17T05:28:14.539Z,12.10
2018-04-17T05:30:42.093Z,14.70
2018-04-17T05:33:09.592Z,17.10
2018-04-17T05:35:37.818Z,12.90
2018-04-17T05:38:05.392Z,19.23
2018-04-17T05:40:32.884Z,23.13
2018-04-17T05:43:01.172Z,16.40
2018-04-17T05:45:28.654Z,16.73
2018-04-17T05:47:56.132Z,12.67
2018-04-17T05:50:23.609Z,13.70
2018-04-17T05:52:51.218Z,13.03
2018-04-17T05:55:18.726Z,14.03
2018-04-17T05:57:46.211Z,10.87
2018-04-17T06:00:14.437Z,12.30
2018-04-17T06:02:41.908Z,11.57
2018-04-17T06:05:09.402Z,15.43
2018-04-17T06:07:36.876Z,11.47
2018-04-17T06:10:04.393Z,20.00
2018-04-17T06:12:31.864Z,12.97
2018-04-17T06:15:00.129Z,13.53
2018-04-17T06:17:28.374Z,16.07
2018-04-17T06:19:56.008Z,17.33
2018-04-17T06:22:23.484Z,14.87
2018-04-17T06:24:50.984Z,14.73
2018-04-17T06:27:19.220Z,13.23
2018-04-17T06:29:46.725Z,10.13
2018-04-17T06:32:15.007Z,16.07
2018-04-17T06:34:43.264Z,12.73
2018-04-17T06:37:10.744Z,14.50
2018-04-17T06:39:38.989Z,17.60
2018-04-17T06:42:07.099Z,13.97
2018-04-17T06:44:35.335Z,15.70
2018-04-17T06:47:02.843Z,11.70
2018-04-17T06:49:30.342Z,15.87
2018-04-17T06:51:57.807Z,14.57
2018-04-17T06:54:25.279Z,12.83
2018-04-17T06:56:53.590Z,11.90
2018-04-17T06:59:21.083Z,11.70
2018-04-17T07:01:48.545Z,15.97
2018-04-17T07:04:16.056Z,15.53
2018-04-17T07:06:43.526Z,15.90
2018-04-17T07:09:11.011Z,10.03
2018-04-17T07:11:38.627Z,14.53
2018-04-17T07:14:06.062Z,16.27
2018-04-17T07:16:34.332Z,15.07
2018-04-17T07:19:01.842Z,11.57
2018-04-17T07:21:29.327Z,11.83
2018-04-17T07:23:56.943Z,13.70
2018-04-17T07:26:24.412Z,17.57
2018-04-17T07:28:51.895Z,13.93
2018-04-17T07:31:19.393Z,18.10
2018-04-17T07:33:47.717Z,14.53
2018-04-17T07:36:15.187Z,14.70
2018-04-17T07:38:42.695Z,20.37
2018-04-17T07:41:10.196Z,16.73
2018-04-17T07:43:37.705Z,19.37
2018-04-17T07:46:05.991Z,17.20
2018-04-17T07:48:45.563Z,15.20
2018-04-17T07:51:13.032Z,16.47
2018-04-17T07:53:40.510Z,17.97
2018-04-17T07:56:07.989Z,20.13
2018-04-17T07:58:36.239Z,20.63
2018-04-17T08:01:03.750Z,16.33
2018-04-17T08:03:31.229Z,21.30
2018-04-17T08:05:58.734Z,19.13
2018-04-17T08:08:27.012Z,21.90
2018-04-17T08:10:55.243Z,20.77
2018-04-17T08:13:22.733Z,20.30
2018-04-17T08:15:50.999Z,18.27
2018-04-17T08:18:19.262Z,20.80
2018-04-17T08:20:46.765Z,22.00
2018-04-17T08:23:15.005Z,19.50
2018-04-17T08:25:42.496Z,17.37
2018-04-17T08:28:10.737Z,19.70
2018-04-17T08:30:38.244Z,20.47
2018-04-17T08:33:05.720Z,21.57
2018-04-17T08:35:33.199Z,21.73
2018-04-17T08:38:00.677Z,21.67
2018-04-17T08:40:28.195Z,18.07
2018-04-17T08:42:55.679Z,22.70
2018-04-17T08:45:23.168Z,22.27
2018-04-17T08:47:51.444Z,30.80
2018-04-17T08:50:19.686Z,20.67
2018-04-17T08:52:47.282Z,17.43
2018-04-17T08:55:15.530Z,19.57
2018-04-17T08:57:43.010Z,22.60
2018-04-17T09:00:11.271Z,19.80
2018-04-17T09:02:38.783Z,22.17
2018-04-17T09:05:06.280Z,19.63
2018-04-17T09:07:33.737Z,20.73
2018-04-17T09:10:01.988Z,21.37
2018-04-17T09:12:29.468Z,21.77
2018-04-17T09:14:57.007Z,29.07
2018-04-17T09:17:24.479Z,30.03
2018-04-17T09:19:52.793Z,22.33
2018-04-17T09:22:21.250Z,22.73
2018-04-17T09:24:50.264Z,25.73
2018-04-17T09:27:18.541Z,21.10
2018-04-17T09:29:46.810Z,24.33
2018-04-17T09:32:15.060Z,22.00
2018-04-17T09:34:42.540Z,29.00
2018-04-17T09:37:10.038Z,23.23
2018-04-17T09:39:37.528Z,22.40
2018-04-17T09:42:06.582Z,23.87
2018-04-17T09:44:34.076Z,23.07
2018-04-17T09:47:01.600Z,27.10
2018-04-17T09:49:29.237Z,24.57
2018-04-17T09:51:57.470Z,22.17
2018-04-17T09:54:24.957Z,23.33
2018-04-17T09:56:53.195Z,24.70
2018-04-17T09:59:20.704Z,21.47
2018-04-17T10:01:48.247Z,25.17
2018-04-17T10:04:16.522Z,21.60
2018-04-17T10:06:44.765Z,19.90
2018-04-17T10:09:12.310Z,18.83
2018-04-17T10:11:39.736Z,19.07
2018-04-17T10:14:07.249Z,18.70
2018-04-17T10:16:35.503Z,20.27
2018-04-17T10:19:02.992Z,21.33
2018-04-17T10:21:31.265Z,17.67
2018-04-17T10:23:59.557Z,18.03
2018-04-17T10:26:27.807Z,17.60
2018-04-17T10:28:55.268Z,22.23
2018-04-17T10:31:22.838Z,22.23
2018-04-17T10:33:50.333Z,15.90
2018-04-17T10:36:17.832Z,16.80
2018-04-17T10:38:45.311Z,14.00
2018-04-17T10:41:12.803Z,18.57
2018-04-17T10:43:40.327Z,9.47
2018-04-17T10:46:08.576Z,7.47
2018-04-17T10:48:36.052Z,10.23
2018-04-17T10:51:03.656Z,9.53
2018-04-17T10:53:31.124Z,12.37
2018-04-17T10:55:58.613Z,13.57
2018-04-17T10:58:26.091Z,17.53
2018-04-17T11:00:53.586Z,11.07
2018-04-17T11:03:21.088Z,11.00
2018-04-17T11:05:48.556Z,11.60
2018-04-17T11:08:16.022Z,13.60
2018-04-17T11:10:43.533Z,12.03
2018-04-17T11:13:11.019Z,12.83
2018-04-17T11:15:38.499Z,13.87
2018-04-17T11:18:06.769Z,9.57
2018-04-17T11:20:34.243Z,9.73
2018-04-17T11:23:02.473Z,8.43
2018-04-17T11:25:29.955Z,14.77
2018-04-17T11:27:57.442Z,9.63
2018-04-17T11:30:25.686Z,9.07
2018-04-17T11:32:53.148Z,7.70
2018-04-17T11:35:20.678Z,8.23
2018-04-17T11:37:48.197Z,7.33
2018-04-17T11:40:15.695Z,8.00
2018-04-17T11:42:43.159Z,7.10
2018-04-17T11:45:10.756Z,6.40
2018-04-17T11:47:38.980Z,7.23
2018-04-17T11:50:06.481Z,7.10
2018-04-17T11:52:34.736Z,17.53
2018-04-17T11:55:02.226Z,8.53
2018-04-17T11:57:30.493Z,8.47
2018-04-17T11:59:58.752Z,11.07
2018-04-17T12:02:26.345Z,8.10
2018-04-17T12:04:53.869Z,10.03
2018-04-17T12:07:21.333Z,5.20
2018-04-17T12:09:48.839Z,7.10
2018-04-17T12:12:16.345Z,8.90
2018-04-17T12:14:43.844Z,9.03
2018-04-17T12:17:11.305Z,8.67
2018-04-17T12:19:38.789Z,11.97
2018-04-17T12:22:06.256Z,5.33
2018-04-17T12:24:33.840Z,7.20
2018-04-17T12:27:01.318Z,6.03
2018-04-17T12:29:28.803Z,5.43
2018-04-17T12:31:56.265Z,3.43
2018-04-17T12:34:23.742Z,5.70
2018-04-17T12:36:51.215Z,7.97
2018-04-17T12:39:18.689Z,7.53
2018-04-17T12:41:46.949Z,8.47
2018-04-17T12:44:15.203Z,8.47
2018-04-17T12:46:42.704Z,4.90
2018-04-17T12:49:10.948Z,6.00
2018-04-17T12:51:38.439Z,4.70
2018-04-17T12:54:06.706Z,4.43
2018-04-17T12:56:34.949Z,9.27
2018-04-17T12:59:02.471Z,6.27
2018-04-17T13:01:30.011Z,9.57
2018-04-17T13:03:58.239Z,5.80
2018-04-17T13:06:25.736Z,7.20
2018-04-17T13:08:53.976Z,8.63
2018-04-17T13:11:21.464Z,9.97
2018-04-17T13:13:49.696Z,5.40
2018-04-17T13:16:17.207Z,8.47
2018-04-17T13:18:45.454Z,6.60
2018-04-17T13:21:12.939Z,4.17
2018-04-17T13:23:41.185Z,7.53
2018-04-17T13:26:08.683Z,6.20
2018-04-17T13:28:36.147Z,7.87
2018-04-17T13:31:03.717Z,6.17
2018-04-17T13:33:31.246Z,6.00
2018-04-17T13:35:59.489Z,8.03
2018-04-17T13:38:26.974Z,5.17
2018-04-17T13:40:55.220Z,4.47
2018-04-17T13:43:22.697Z,5.10
2018-04-17T13:45:50.212Z,3.87
2018-04-17T13:48:17.671Z,3.73
2018-04-17T13:50:45.147Z,5.87
2018-04-17T13:53:12.623Z,7.13
2018-04-17T13:55:40.099Z,5.57
2018-04-17T13:58:08.644Z,5.93
2018-04-17T14:00:36.142Z,5.27
2018-04-17T14:03:04.363Z,6.07
2018-04-17T14:05:31.878Z,5.47
2018-04-17T14:08:00.108Z,4.60
2018-04-17T14:10:27.603Z,6.33
2018-04-17T14:12:55.854Z,5.83
2018-04-17T14:15:23.335Z,4.23
2018-04-17T14:17:51.584Z,6.67
2018-04-17T14:20:19.110Z,6.13
2018-04-17T14:22:46.590Z,4.97
2018-04-17T14:25:14.068Z,8.00
2018-04-17T14:27:41.548Z,4.13
2018-04-17T14:30:09.828Z,6.80
2018-04-17T14:32:37.405Z,5.77
2018-04-17T14:35:04.881Z,5.80
2018-04-17T14:37:32.371Z,2.93
2018-04-17T14:39:59.865Z,4.17
2018-04-17T14:42:27.329Z,4.20
2018-04-17T14:44:54.893Z,3.87
2018-04-17T14:47:22.411Z,6.60
2018-04-17T14:49:50.682Z,5.67
2018-04-17T14:52:18.180Z,8.23
2018-04-17T14:54:45.693Z,7.40
2018-04-17T14:57:13.248Z,6.40
2018-04-17T14:59:40.711Z,4.30
2018-04-17T15:02:08.270Z,5.93
2018-04-17T15:04:35.735Z,5.43
2018-04-17T15:07:03.228Z,4.83
2018-04-17T15:09:30.688Z,4.37
2018-04-17T15:11:58.184Z,5.73
2018-04-17T15:14:25.642Z,4.40
2018-04-17T15:16:53.145Z,4.07
2018-04-17T15:19:20.612Z,5.03
2018-04-17T15:21:48.095Z,3.78
2018-04-17T15:24:15.562Z,5.07
2018-04-17T15:26:43.048Z,3.95
2018-04-17T15:29:10.511Z,6.55
2018-04-17T15:31:38.765Z,4.43
2018-04-17T15:34:06.228Z,5.53
2018-04-17T15:36:33.712Z,5.00
2018-04-17T15:39:01.944Z,6.03
2018-04-17T15:41:29.535Z,6.68
2018-04-17T15:43:57.808Z,6.20
2018-04-17T15:46:25.299Z,7.35
2018-04-17T15:48:52.934Z,5.55
2018-04-17T15:51:21.200Z,2.30
2018-04-17T15:53:48.687Z,4.25
2018-04-17T15:56:16.189Z,5.18
2018-04-17T15:58:43.659Z,3.58
2018-04-17T16:01:11.139Z,4.60
2018-04-17T16:03:39.373Z,4.53
2018-04-17T16:06:06.859Z,4.40
2018-04-17T16:08:34.367Z,4.78
2018-04-17T16:11:01.855Z,3.72
2018-04-17T16:13:29.331Z,4.80
2018-04-17T16:15:56.833Z,5.25
2018-04-17T16:18:24.337Z,4.60
2018-04-17T16:20:51.919Z,5.37
2018-04-17T16:23:20.163Z,5.15
2018-04-17T16:25:47.635Z,5.68
2018-04-17T16:28:15.091Z,8.30
2018-04-17T16:30:42.819Z,4.47
2018-04-17T16:33:10.288Z,5.97
2018-04-17T16:35:37.783Z,6.72
2018-04-17T16:38:06.016Z,5.60
2018-04-17T16:40:33.523Z,6.00
2018-04-17T16:43:01.749Z,6.78
2018-04-17T16:45:29.228Z,4.63
2018-04-17T16:47:56.699Z,5.50
2018-04-17T16:50:24.963Z,4.30
2018-04-17T16:52:52.456Z,4.78
2018-04-17T16:55:19.917Z,6.90
2018-04-17T16:57:48.184Z,6.87
2018-04-17T17:00:16.419Z,6.17
2018-04-17T17:02:43.902Z,4.33
2018-04-17T17:05:11.373Z,6.70
2018-04-17T17:07:39.625Z,3.80
2018-04-17T17:10:07.105Z,5.57
2018-04-17T17:12:35.359Z,8.23
2018-04-17T17:15:02.862Z,7.97
2018-04-17T17:17:30.339Z,5.70
2018-04-17T17:19:57.802Z,7.80
2018-04-17T17:22:25.296Z,4.97
2018-04-17T17:24:52.789Z,10.50
2018-04-17T17:27:20.288Z,7.30
2018-04-17T17:29:47.809Z,6.17
2018-04-17T17:32:15.318Z,9.67
2018-04-17T17:34:42.891Z,10.83
2018-04-17T17:37:11.147Z,8.07
2018-04-17T17:39:39.432Z,12.07
2018-04-17T17:42:06.938Z,9.47
2018-04-17T17:44:34.395Z,6.57
2018-04-17T17:47:01.909Z,11.43
2018-04-17T17:49:30.156Z,10.07
2018-04-17T17:51:57.656Z,7.03
2018-04-17T17:54:25.919Z,6.77
2018-04-17T17:56:53.407Z,9.33
2018-04-17T17:59:20.879Z,6.37
2018-04-17T18:01:48.386Z,10.83
2018-04-17T18:04:15.863Z,10.70
2018-04-17T18:06:44.116Z,11.03
2018-04-17T18:09:11.598Z,12.57
2018-04-17T18:11:39.966Z,11.13
2018-04-17T18:14:08.211Z,9.17
2018-04-17T18:16:35.699Z,9.27
2018-04-17T18:19:03.159Z,8.30
2018-04-17T18:21:31.407Z,8.90
2018-04-17T18:23:58.905Z,9.43
2018-04-17T18:26:26.418Z,8.77
2018-04-17T18:28:53.886Z,12.23
2018-04-17T18:31:21.365Z,8.73
2018-04-17T18:33:49.613Z,10.17
2018-04-17T18:36:17.092Z,15.10
2018-04-17T18:38:45.535Z,8.30
2018-04-17T18:41:13.051Z,11.50
2018-04-17T18:43:40.596Z,13.23
2018-04-17T18:46:08.840Z,9.20
2018-04-17T18:48:36.313Z,10.20
2018-04-17T18:51:03.815Z,13.47
2018-04-17T18:53:31.298Z,9.50
2018-04-17T18:55:58.787Z,12.63
2018-04-17T18:58:26.387Z,12.13
2018-04-17T19:00:53.851Z,8.47
2018-04-17T19:03:21.408Z,6.87
2018-04-17T19:05:48.949Z,7.80
2018-04-17T19:08:16.429Z,9.00
2018-04-17T19:10:43.904Z,15.37
2018-04-17T19:13:11.401Z,13.63
2018-04-17T19:15:39.639Z,11.03
2018-04-17T19:18:07.291Z,10.13
2018-04-17T19:20:34.830Z,9.83
2018-04-17T19:23:02.339Z,11.00
2018-04-17T19:25:29.807Z,14.97
2018-04-17T19:27:58.138Z,9.70
2018-04-17T19:30:25.620Z,12.73
2018-04-17T19:32:53.134Z,15.27
2018-04-17T19:35:20.599Z,17.03
2018-04-17T19:37:48.127Z,11.93
2018-04-17T19:40:16.410Z,15.53
2018-04-17T19:42:43.919Z,15.27
2018-04-17T19:45:11.405Z,16.20
2018-04-17T19:47:38.912Z,12.50
2018-04-17T19:50:06.372Z,18.17
2018-04-17T19:52:33.858Z,15.50
2018-04-17T19:55:01.317Z,14.43
2018-04-17T19:57:28.835Z,14.87
2018-04-17T19:59:56.303Z,12.83
2018-04-17T20:02:23.848Z,12.60
2018-04-17T20:04:51.410Z,12.00
2018-04-17T20:07:18.889Z,11.93
2018-04-17T20:09:46.409Z,15.18
2018-04-17T20:12:13.949Z,18.90
2018-04-17T20:14:42.263Z,13.40
2018-04-17T20:17:10.525Z,13.47
2018-04-17T20:19:38.068Z,15.77
2018-04-17T20:22:06.310Z,13.53
2018-04-17T20:24:33.793Z,16.63
2018-04-17T20:27:02.075Z,13.70
2018-04-17T20:29:30.390Z,12.20
2018-04-17T20:31:57.891Z,15.03
2018-04-17T20:34:25.401Z,12.43
2018-04-17T20:36:52.904Z,12.33
2018-04-17T20:39:20.385Z,12.67
2018-04-17T20:41:48.788Z,13.30
2018-04-17T20:44:16.279Z,13.63
2018-04-17T20:46:43.813Z,13.73
2018-04-17T20:49:11.290Z,12.10
2018-04-17T20:51:38.773Z,14.07
2018-04-17T20:54:06.276Z,10.63
2018-04-17T20:56:33.761Z,12.50
2018-04-17T20:59:01.292Z,12.10
2018-04-17T21:01:28.781Z,13.87
2018-04-17T21:03:56.263Z,12.97
2018-04-17T21:06:23.941Z,11.30
2018-04-17T21:08:52.215Z,12.43
2018-04-17T21:11:20.449Z,11.50
2018-04-17T21:13:47.941Z,13.73
2018-04-17T21:16:16.260Z,12.20
2018-04-17T21:18:43.743Z,12.03
2018-04-17T21:21:11.212Z,15.03
2018-04-17T21:23:38.693Z,10.60
2018-04-17T21:26:06.988Z,12.97
2018-04-17T21:28:34.555Z,13.07
2018-04-17T21:31:02.096Z,13.53
2018-04-17T21:33:30.363Z,9.70
2018-04-17T21:35:58.609Z,12.73
2018-04-17T21:38:26.091Z,11.57
2018-04-17T21:40:53.555Z,10.43
2018-04-17T21:43:21.831Z,13.93
2018-04-17T21:45:50.080Z,16.13
2018-04-17T21:48:17.562Z,16.97
2018-04-17T21:50:45.818Z,9.70
2018-04-17T21:53:14.807Z,13.43
2018-04-17T21:55:43.858Z,9.97
2018-04-17T21:58:11.387Z,16.40
2018-04-17T22:00:38.832Z,12.97
2018-04-17T22:03:06.432Z,13.17
2018-04-17T22:08:01.630Z,11.70
2018-04-17T22:10:30.034Z,13.60
2018-04-17T22:12:57.534Z,12.20
2018-04-17T22:15:25.041Z,11.63
2018-04-17T22:17:52.523Z,12.10
2018-04-17T22:20:20.014Z,13.43
2018-04-17T22:22:47.517Z,11.10
2018-04-17T22:25:15.027Z,14.67
2018-04-17T22:27:42.540Z,12.97
2018-04-17T22:30:10.004Z,15.53
2018-04-17T22:32:37.508Z,10.37
2018-04-17T22:35:05.782Z,13.40
2018-04-17T22:37:33.297Z,12.87
2018-04-17T22:40:00.775Z,10.10
2018-04-17T22:42:28.341Z,9.70
2018-04-17T22:44:55.831Z,13.73
2018-04-17T22:47:24.127Z,14.57
2018-04-17T22:49:51.591Z,12.40
2018-04-17T22:52:19.134Z,12.57
2018-04-17T22:54:47.399Z,12.60
2018-04-17T22:57:15.659Z,12.77
2018-04-17T22:59:43.199Z,12.87
2018-04-17T23:02:10.723Z,12.10
2018-04-17T23:04:38.284Z,9.00
2018-04-17T23:07:05.840Z,10.43
2018-04-17T23:09:33.335Z,16.33
2018-04-17T23:12:00.864Z,15.17
2018-04-17T23:14:28.380Z,10.97
2018-04-17T23:16:56.629Z,13.20
2018-04-17T23:19:24.133Z,18.83
2018-04-17T23:21:51.669Z,11.07
2018-04-17T23:24:19.937Z,13.57
2018-04-17T23:26:47.482Z,13.10
2018-04-17T23:29:15.817Z,12.93
2018-04-17T23:31:43.317Z,12.40
2018-04-17T23:34:10.843Z,11.47
2018-04-17T23:36:38.345Z,15.80
2018-04-17T23:39:05.862Z,11.63
2018-04-17T23:41:33.354Z,16.37
2018-04-17T23:44:00.847Z,10.83
2018-04-17T23:46:29.387Z,17.83
2018-04-17T23:48:56.954Z,13.07
2018-04-17T23:51:24.437Z,12.10
2018-04-17T23:53:52.732Z,10.07
2018-04-17T23:56:20.218Z,13.07
2018-04-17T23:58:47.732Z,9.97
